sensor_id;sensor_type;location;lat;lon;timestamp;pressure;altitude;pressure_sealevel;temperature;humidity
49178;BME280;35016;55.674;37.468;2022-07-15T00:00:23;97993.34;;;15.76;75.81
49178;BME280;35016;55.674;37.468;2022-07-15T00:02:50;97998.34;;;15.74;75.54
49178;BME280;35016;55.674;37.468;2022-07-15T00:05:17;97996.75;;;15.73;75.73
49178;BME280;35016;55.674;37.468;2022-07-15T00:07:44;97995.94;;;15.73;75.62
49178;BME280;35016;55.674;37.468;2022-07-15T00:10:12;97987.63;;;15.69;75.56
49178;BME280;35016;55.674;37.468;2022-07-15T00:12:54;97988.41;;;15.70;75.71
49178;BME280;35016;55.674;37.468;2022-07-15T00:15:27;97982.00;;;15.66;75.32
49178;BME280;35016;55.674;37.468;2022-07-15T00:17:56;97985.22;;;15.68;75.27
49178;BME280;35016;55.674;37.468;2022-07-15T00:20:28;97975.75;;;15.65;75.69
49178;BME280;35016;55.674;37.468;2022-07-15T00:23:06;97983.81;;;15.62;75.01
49178;BME280;35016;55.674;37.468;2022-07-15T00:26:30;97979.13;;;15.62;75.05
49178;BME280;35016;55.674;37.468;2022-07-15T00:29:05;97977.34;;;15.58;74.81
49178;BME280;35016;55.674;37.468;2022-07-15T00:31:32;97976.06;;;15.55;75.17
49178;BME280;35016;55.674;37.468;2022-07-15T00:34:02;97994.72;;;15.62;75.01
49178;BME280;35016;55.674;37.468;2022-07-15T00:36:30;97992.00;;;15.62;75.23
49178;BME280;35016;55.674;37.468;2022-07-15T00:38:57;97980.06;;;15.58;75.37
49178;BME280;35016;55.674;37.468;2022-07-15T00:41:24;97982.81;;;15.58;75.19
49178;BME280;35016;55.674;37.468;2022-07-15T00:43:54;97985.06;;;15.56;75.46
49178;BME280;35016;55.674;37.468;2022-07-15T00:46:21;97985.41;;;15.54;75.51
49178;BME280;35016;55.674;37.468;2022-07-15T00:48:49;97979.78;;;15.50;75.35
49178;BME280;35016;55.674;37.468;2022-07-15T00:51:16;97988.19;;;15.45;75.40
49178;BME280;35016;55.674;37.468;2022-07-15T00:53:44;97994.78;;;15.44;75.34
49178;BME280;35016;55.674;37.468;2022-07-15T00:56:13;97981.78;;;15.41;75.74
49178;BME280;35016;55.674;37.468;2022-07-15T00:58:43;97979.69;;;15.38;75.86
49178;BME280;35016;55.674;37.468;2022-07-15T01:01:11;97994.63;;;15.32;75.82
49178;BME280;35016;55.674;37.468;2022-07-15T01:03:39;97980.03;;;15.28;76.12
49178;BME280;35016;55.674;37.468;2022-07-15T01:06:07;97989.38;;;15.27;75.88
49178;BME280;35016;55.674;37.468;2022-07-15T01:08:34;97991.94;;;15.24;76.22
49178;BME280;35016;55.674;37.468;2022-07-15T01:11:02;98008.66;;;15.22;76.39
49178;BME280;35016;55.674;37.468;2022-07-15T01:13:29;98011.72;;;15.21;76.36
49178;BME280;35016;55.674;37.468;2022-07-15T01:15:56;98014.78;;;15.19;76.48
49178;BME280;35016;55.674;37.468;2022-07-15T01:18:26;98007.56;;;15.14;76.31
49178;BME280;35016;55.674;37.468;2022-07-15T01:20:54;98019.75;;;15.17;76.71
49178;BME280;35016;55.674;37.468;2022-07-15T01:23:21;98036.47;;;15.15;76.79
49178;BME280;35016;55.674;37.468;2022-07-15T01:26:04;98029.88;;;15.16;76.56
49178;BME280;35016;55.674;37.468;2022-07-15T01:28:32;98031.81;;;15.16;76.69
49178;BME280;35016;55.674;37.468;2022-07-15T01:30:59;98028.28;;;15.15;76.54
49178;BME280;35016;55.674;37.468;2022-07-15T01:33:30;98039.53;;;15.14;76.58
49178;BME280;35016;55.674;37.468;2022-07-15T01:35:59;98034.53;;;15.16;76.77
49178;BME280;35016;55.674;37.468;2022-07-15T01:38:29;98042.91;;;15.11;77.04
49178;BME280;35016;55.674;37.468;2022-07-15T01:41:00;98053.19;;;15.14;76.67
49178;BME280;35016;55.674;37.468;2022-07-15T01:43:27;98052.72;;;15.12;76.60
49178;BME280;35016;55.674;37.468;2022-07-15T01:45:54;98057.69;;;15.10;77.03
49178;BME280;35016;55.674;37.468;2022-07-15T01:48:28;98044.38;;;15.08;76.80
49178;BME280;35016;55.674;37.468;2022-07-15T01:51:34;98026.53;;;15.02;76.54
49178;BME280;35016;55.674;37.468;2022-07-15T01:54:01;98027.19;;;14.99;76.94
49178;BME280;35016;55.674;37.468;2022-07-15T01:56:28;98040.03;;;15.07;76.76
49178;BME280;35016;55.674;37.468;2022-07-15T01:58:55;98031.38;;;15.05;77.12
49178;BME280;35016;55.674;37.468;2022-07-15T02:01:23;98039.88;;;15.04;76.93
49178;BME280;35016;55.674;37.468;2022-07-15T02:03:50;98034.44;;;15.04;76.85
49178;BME280;35016;55.674;37.468;2022-07-15T02:06:17;98045.81;;;15.06;76.58
49178;BME280;35016;55.674;37.468;2022-07-15T02:08:44;98046.94;;;15.05;76.96
49178;BME280;35016;55.674;37.468;2022-07-15T02:11:14;98057.22;;;15.08;76.81
49178;BME280;35016;55.674;37.468;2022-07-15T02:13:46;98048.22;;;15.07;76.89
49178;BME280;35016;55.674;37.468;2022-07-15T02:16:14;98058.03;;;15.08;76.42
49178;BME280;35016;55.674;37.468;2022-07-15T02:18:41;98068.47;;;15.06;76.45
49178;BME280;35016;55.674;37.468;2022-07-15T02:21:09;98051.59;;;15.04;76.50
49178;BME280;35016;55.674;37.468;2022-07-15T02:23:37;98058.81;;;15.00;76.31
49178;BME280;35016;55.674;37.468;2022-07-15T02:26:05;98055.75;;;15.02;76.76
49178;BME280;35016;55.674;37.468;2022-07-15T02:28:32;98067.00;;;15.00;76.56
49178;BME280;35016;55.674;37.468;2022-07-15T02:30:59;98055.28;;;15.00;76.93
49178;BME280;35016;55.674;37.468;2022-07-15T02:33:32;98062.81;;;15.03;76.77
49178;BME280;35016;55.674;37.468;2022-07-15T02:35:59;98055.94;;;14.97;76.42
49178;BME280;35016;55.674;37.468;2022-07-15T02:38:27;98060.91;;;15.03;76.47
49178;BME280;35016;55.674;37.468;2022-07-15T02:40:56;98053.84;;;15.02;76.33
49178;BME280;35016;55.674;37.468;2022-07-15T02:43:25;98056.91;;;15.09;76.63
49178;BME280;35016;55.674;37.468;2022-07-15T02:45:52;98054.47;;;15.16;76.45
49178;BME280;35016;55.674;37.468;2022-07-15T02:48:19;98068.41;;;15.24;76.46
49178;BME280;35016;55.674;37.468;2022-07-15T02:50:48;98063.56;;;15.29;76.19
49178;BME280;35016;55.674;37.468;2022-07-15T02:53:16;98055.84;;;15.31;75.91
49178;BME280;35016;55.674;37.468;2022-07-15T02:55:47;98063.25;;;15.39;76.04
49178;BME280;35016;55.674;37.468;2022-07-15T02:58:16;98062.13;;;15.40;75.73
49178;BME280;35016;55.674;37.468;2022-07-15T03:00:44;98060.16;;;15.49;75.75
49178;BME280;35016;55.674;37.468;2022-07-15T03:03:11;98072.16;;;15.57;75.43
49178;BME280;35016;55.674;37.468;2022-07-15T03:05:39;98064.16;;;15.61;75.28
49178;BME280;35016;55.674;37.468;2022-07-15T03:08:08;98082.00;;;15.67;75.23
49178;BME280;35016;55.674;37.468;2022-07-15T03:10:36;98080.22;;;15.71;75.22
49178;BME280;35016;55.674;37.468;2022-07-15T03:13:09;98084.50;;;15.80;75.21
49178;BME280;35016;55.674;37.468;2022-07-15T03:15:36;98079.84;;;15.81;75.04
49178;BME280;35016;55.674;37.468;2022-07-15T03:18:03;98089.63;;;15.82;74.89
49178;BME280;35016;55.674;37.468;2022-07-15T03:20:31;98089.50;;;15.78;74.94
49178;BME280;35016;55.674;37.468;2022-07-15T03:22:58;98090.19;;;15.67;74.75
49178;BME280;35016;55.674;37.468;2022-07-15T03:25:25;98096.94;;;15.69;74.86
49178;BME280;35016;55.674;37.468;2022-07-15T03:27:52;98086.19;;;15.64;74.94
49178;BME280;35016;55.674;37.468;2022-07-15T03:30:19;98091.19;;;15.62;74.94
49178;BME280;35016;55.674;37.468;2022-07-15T03:32:48;98111.44;;;15.61;74.52
49178;BME280;35016;55.674;37.468;2022-07-15T03:35:18;98107.88;;;15.61;74.47
49178;BME280;35016;55.674;37.468;2022-07-15T03:37:45;98102.91;;;15.63;74.71
49178;BME280;35016;55.674;37.468;2022-07-15T03:40:14;98116.56;;;15.63;74.73
49178;BME280;35016;55.674;37.468;2022-07-15T03:42:41;98113.66;;;15.59;74.49
49178;BME280;35016;55.674;37.468;2022-07-15T03:45:08;98113.28;;;15.78;74.96
49178;BME280;35016;55.674;37.468;2022-07-15T03:47:36;98118.06;;;15.90;74.96
49178;BME280;35016;55.674;37.468;2022-07-15T03:50:06;98109.97;;;16.02;74.17
49178;BME280;35016;55.674;37.468;2022-07-15T03:52:37;98104.13;;;16.12;74.11
49178;BME280;35016;55.674;37.468;2022-07-15T03:55:05;98106.84;;;16.21;73.71
49178;BME280;35016;55.674;37.468;2022-07-15T03:57:32;98113.72;;;16.27;73.74
49178;BME280;35016;55.674;37.468;2022-07-15T03:59:59;98115.59;;;16.35;73.30
49178;BME280;35016;55.674;37.468;2022-07-15T04:02:28;98132.63;;;16.40;73.59
49178;BME280;35016;55.674;37.468;2022-07-15T04:04:57;98132.88;;;16.48;73.43
49178;BME280;35016;55.674;37.468;2022-07-15T04:07:24;98119.84;;;16.53;73.31
49178;BME280;35016;55.674;37.468;2022-07-15T04:09:51;98120.44;;;16.59;73.04
49178;BME280;35016;55.674;37.468;2022-07-15T04:12:18;98114.44;;;16.65;73.17
49178;BME280;35016;55.674;37.468;2022-07-15T04:14:46;98117.47;;;16.72;72.67
49178;BME280;35016;55.674;37.468;2022-07-15T04:17:15;98122.75;;;16.78;72.42
49178;BME280;35016;55.674;37.468;2022-07-15T04:19:42;98136.84;;;16.88;72.56
49178;BME280;35016;55.674;37.468;2022-07-15T04:22:10;98142.13;;;16.93;72.37
49178;BME280;35016;55.674;37.468;2022-07-15T04:24:45;98149.44;;;17.01;72.31
49178;BME280;35016;55.674;37.468;2022-07-15T04:27:14;98140.03;;;17.11;71.97
49178;BME280;35016;55.674;37.468;2022-07-15T04:29:43;98141.09;;;17.19;71.71
49178;BME280;35016;55.674;37.468;2022-07-15T04:32:12;98146.38;;;17.24;71.27
49178;BME280;35016;55.674;37.468;2022-07-15T04:34:44;98145.81;;;17.30;71.29
49178;BME280;35016;55.674;37.468;2022-07-15T04:37:12;98167.22;;;17.37;71.07
49178;BME280;35016;55.674;37.468;2022-07-15T04:39:43;98176.81;;;17.43;71.13
49178;BME280;35016;55.674;37.468;2022-07-15T04:42:12;98174.66;;;17.49;70.88
49178;BME280;35016;55.674;37.468;2022-07-15T04:44:42;98168.50;;;17.52;70.43
49178;BME280;35016;55.674;37.468;2022-07-15T04:47:13;98169.09;;;17.57;70.59
49178;BME280;35016;55.674;37.468;2022-07-15T04:49:52;98185.03;;;17.64;70.16
49178;BME280;35016;55.674;37.468;2022-07-15T04:52:43;98179.47;;;17.73;70.07
49178;BME280;35016;55.674;37.468;2022-07-15T04:55:15;98189.28;;;17.74;69.99
49178;BME280;35016;55.674;37.468;2022-07-15T04:57:50;98192.28;;;17.81;69.70
49178;BME280;35016;55.674;37.468;2022-07-15T05:00:18;98175.94;;;17.84;69.52
49178;BME280;35016;55.674;37.468;2022-07-15T05:02:49;98178.63;;;17.93;69.47
49178;BME280;35016;55.674;37.468;2022-07-15T05:05:28;98194.06;;;18.10;69.18
49178;BME280;35016;55.674;37.468;2022-07-15T05:08:21;98190.75;;;18.16;68.91
49178;BME280;35016;55.674;37.468;2022-07-15T05:11:03;98178.97;;;18.16;68.66
49178;BME280;35016;55.674;37.468;2022-07-15T05:13:31;98174.66;;;18.27;68.28
49178;BME280;35016;55.674;37.468;2022-07-15T05:16:02;98147.66;;;18.29;68.17
49178;BME280;35016;55.674;37.468;2022-07-15T05:18:34;98161.94;;;18.35;68.02
49178;BME280;35016;55.674;37.468;2022-07-15T05:21:07;98161.13;;;18.46;67.68
49178;BME280;35016;55.674;37.468;2022-07-15T05:33:45;98167.88;;;18.61;66.16
49178;BME280;35016;55.674;37.468;2022-07-15T05:38:04;98150.06;;;18.67;66.16
49178;BME280;35016;55.674;37.468;2022-07-15T05:41:11;98145.59;;;18.63;65.94
49178;BME280;35016;55.674;37.468;2022-07-15T05:43:48;98150.38;;;18.78;65.32
49178;BME280;35016;55.674;37.468;2022-07-15T05:47:03;98165.69;;;18.91;64.49
49178;BME280;35016;55.674;37.468;2022-07-15T05:49:44;98138.81;;;18.84;64.29
49178;BME280;35016;55.674;37.468;2022-07-15T05:52:43;98158.00;;;18.97;64.18
49178;BME280;35016;55.674;37.468;2022-07-15T05:55:28;98136.59;;;19.02;64.24
49178;BME280;35016;55.674;37.468;2022-07-15T05:57:56;98160.59;;;19.17;63.71
49178;BME280;35016;55.674;37.468;2022-07-15T06:00:28;98153.16;;;19.18;63.28
49178;BME280;35016;55.674;37.468;2022-07-15T06:02:55;98161.25;;;19.27;63.01
49178;BME280;35016;55.674;37.468;2022-07-15T06:05:26;98164.97;;;19.34;62.97
49178;BME280;35016;55.674;37.468;2022-07-15T06:07:59;98143.91;;;19.38;62.80
49178;BME280;35016;55.674;37.468;2022-07-15T06:10:37;98153.38;;;19.53;62.60
49178;BME280;35016;55.674;37.468;2022-07-15T06:13:04;98149.34;;;19.50;62.21
49178;BME280;35016;55.674;37.468;2022-07-15T06:15:32;98148.84;;;19.61;62.33
49178;BME280;35016;55.674;37.468;2022-07-15T06:17:59;98131.66;;;19.64;61.93
49178;BME280;35016;55.674;37.468;2022-07-15T06:20:30;98145.44;;;19.79;61.66
49178;BME280;35016;55.674;37.468;2022-07-15T06:22:59;98147.91;;;19.85;61.59
49178;BME280;35016;55.674;37.468;2022-07-15T06:25:26;98168.59;;;19.94;61.55
49178;BME280;35016;55.674;37.468;2022-07-15T06:27:53;98142.97;;;20.06;61.37
49178;BME280;35016;55.674;37.468;2022-07-15T06:30:20;98160.19;;;20.19;61.02
49178;BME280;35016;55.674;37.468;2022-07-15T06:32:48;98142.00;;;20.30;60.85
49178;BME280;35016;55.674;37.468;2022-07-15T06:35:16;98137.00;;;20.35;60.42
49178;BME280;35016;55.674;37.468;2022-07-15T06:37:43;98139.03;;;20.38;60.16
49178;BME280;35016;55.674;37.468;2022-07-15T06:40:10;98144.22;;;20.40;59.98
49178;BME280;35016;55.674;37.468;2022-07-15T06:42:38;98153.00;;;20.46;60.02
49178;BME280;35016;55.674;37.468;2022-07-15T06:45:08;98143.78;;;20.54;59.64
49178;BME280;35016;55.674;37.468;2022-07-15T06:47:41;98146.41;;;20.66;59.46
49178;BME280;35016;55.674;37.468;2022-07-15T06:50:09;98147.28;;;20.70;59.45
49178;BME280;35016;55.674;37.468;2022-07-15T06:52:40;98163.53;;;20.75;59.53
49178;BME280;35016;55.674;37.468;2022-07-15T06:55:07;98160.59;;;20.84;58.88
49178;BME280;35016;55.674;37.468;2022-07-15T06:57:39;98166.72;;;20.77;58.33
49178;BME280;35016;55.674;37.468;2022-07-15T07:00:10;98161.34;;;20.65;58.63
49178;BME280;35016;55.674;37.468;2022-07-15T07:02:39;98162.16;;;20.50;58.74
49178;BME280;35016;55.674;37.468;2022-07-15T07:05:13;98170.41;;;20.65;58.54
49178;BME280;35016;55.674;37.468;2022-07-15T07:07:40;98170.56;;;20.72;58.46
49178;BME280;35016;55.674;37.468;2022-07-15T07:10:09;98166.72;;;20.77;58.02
49178;BME280;35016;55.674;37.468;2022-07-15T07:12:36;98176.69;;;20.82;57.63
49178;BME280;35016;55.674;37.468;2022-07-15T07:15:04;98173.72;;;20.90;57.62
49178;BME280;35016;55.674;37.468;2022-07-15T07:17:34;98185.25;;;20.96;57.37
49178;BME280;35016;55.674;37.468;2022-07-15T07:20:01;98186.13;;;21.00;57.34
49178;BME280;35016;55.674;37.468;2022-07-15T07:22:29;98173.59;;;21.02;56.92
49178;BME280;35016;55.674;37.468;2022-07-15T07:24:56;98179.03;;;20.99;57.11
49178;BME280;35016;55.674;37.468;2022-07-15T07:27:28;98184.19;;;21.00;56.83
49178;BME280;35016;55.674;37.468;2022-07-15T07:29:55;98186.41;;;20.95;56.72
49178;BME280;35016;55.674;37.468;2022-07-15T07:32:22;98187.38;;;21.02;56.43
49178;BME280;35016;55.674;37.468;2022-07-15T07:34:49;98192.34;;;21.13;56.03
49178;BME280;35016;55.674;37.468;2022-07-15T07:37:17;98204.47;;;21.27;55.23
49178;BME280;35016;55.674;37.468;2022-07-15T07:39:44;98188.16;;;21.38;55.04
49178;BME280;35016;55.674;37.468;2022-07-15T07:42:14;98210.59;;;21.56;54.61
49178;BME280;35016;55.674;37.468;2022-07-15T07:44:41;98178.56;;;21.71;54.15
49178;BME280;35016;55.674;37.468;2022-07-15T07:47:18;98196.50;;;21.80;53.18
49178;BME280;35016;55.674;37.468;2022-07-15T07:49:45;98198.22;;;21.88;53.26
49178;BME280;35016;55.674;37.468;2022-07-15T07:52:12;98190.84;;;21.96;53.01
49178;BME280;35016;55.674;37.468;2022-07-15T07:54:43;98182.38;;;22.05;52.61
49178;BME280;35016;55.674;37.468;2022-07-15T07:57:11;98181.66;;;22.08;52.33
49178;BME280;35016;55.674;37.468;2022-07-15T07:59:38;98180.91;;;22.11;51.92
49178;BME280;35016;55.674;37.468;2022-07-15T08:02:05;98187.03;;;22.23;51.62
49178;BME280;35016;55.674;37.468;2022-07-15T08:04:32;98179.31;;;22.33;51.24
49178;BME280;35016;55.674;37.468;2022-07-15T08:07:00;98174.84;;;22.51;50.86
49178;BME280;35016;55.674;37.468;2022-07-15T08:09:27;98166.09;;;22.72;50.20
49178;BME280;35016;55.674;37.468;2022-07-15T08:11:54;98158.59;;;22.72;49.54
49178;BME280;35016;55.674;37.468;2022-07-15T08:14:24;98164.16;;;22.99;49.48
49178;BME280;35016;55.674;37.468;2022-07-15T08:16:54;98167.59;;;23.18;49.10
49178;BME280;35016;55.674;37.468;2022-07-15T08:19:26;98188.28;;;23.32;48.88
49178;BME280;35016;55.674;37.468;2022-07-15T08:21:53;98214.75;;;23.29;47.75
49178;BME280;35016;55.674;37.468;2022-07-15T08:24:21;98207.16;;;23.23;47.79
49178;BME280;35016;55.674;37.468;2022-07-15T08:26:48;98199.88;;;23.11;47.71
49178;BME280;35016;55.674;37.468;2022-07-15T08:29:15;98203.34;;;23.04;47.83
49178;BME280;35016;55.674;37.468;2022-07-15T08:31:45;98201.22;;;22.94;47.96
49178;BME280;35016;55.674;37.468;2022-07-15T08:34:13;98208.78;;;22.97;47.77
49178;BME280;35016;55.674;37.468;2022-07-15T08:36:40;98222.00;;;23.11;47.42
49178;BME280;35016;55.674;37.468;2022-07-15T08:39:07;98213.28;;;23.09;47.39
49178;BME280;35016;55.674;37.468;2022-07-15T08:41:36;98220.22;;;22.96;46.49
49178;BME280;35016;55.674;37.468;2022-07-15T08:44:06;98223.44;;;22.78;46.68
49178;BME280;35016;55.674;37.468;2022-07-15T08:46:35;98227.28;;;22.70;46.20
49178;BME280;35016;55.674;37.468;2022-07-15T08:49:08;98218.66;;;22.75;45.38
49178;BME280;35016;55.674;37.468;2022-07-15T08:51:43;98230.00;;;22.90;45.11
49178;BME280;35016;55.674;37.468;2022-07-15T08:54:11;98233.28;;;22.99;45.20
49178;BME280;35016;55.674;37.468;2022-07-15T08:56:39;98226.06;;;22.91;45.43
49178;BME280;35016;55.674;37.468;2022-07-15T08:59:07;98236.63;;;22.85;44.82
49178;BME280;35016;55.674;37.468;2022-07-15T09:01:43;98233.97;;;22.92;43.89
49178;BME280;35016;55.674;37.468;2022-07-15T09:04:11;98249.81;;;22.95;44.56
49178;BME280;35016;55.674;37.468;2022-07-15T09:44:20;98233.56;;;24.14;40.51
49178;BME280;35016;55.674;37.468;2022-07-15T09:47:16;98212.97;;;24.11;41.13
49178;BME280;35016;55.674;37.468;2022-07-15T09:49:45;98224.41;;;24.06;41.27
49178;BME280;35016;55.674;37.468;2022-07-15T09:52:50;98228.03;;;24.14;39.98
49178;BME280;35016;55.674;37.468;2022-07-15T09:55:30;98228.34;;;24.05;40.80
49178;BME280;35016;55.674;37.468;2022-07-15T09:58:29;98229.53;;;24.04;40.33
49178;BME280;35016;55.674;37.468;2022-07-15T10:00:57;98232.44;;;23.81;40.77
49178;BME280;35016;55.674;37.468;2022-07-15T10:03:27;98225.50;;;23.64;41.01
49178;BME280;35016;55.674;37.468;2022-07-15T10:05:55;98250.31;;;23.57;41.19
49178;BME280;35016;55.674;37.468;2022-07-15T10:08:27;98244.88;;;23.38;41.15
49178;BME280;35016;55.674;37.468;2022-07-15T10:10:56;98245.09;;;23.52;41.96
49178;BME280;35016;55.674;37.468;2022-07-15T10:14:14;98234.22;;;23.66;41.20
49178;BME280;35016;55.674;37.468;2022-07-15T10:21:44;98239.91;;;23.77;40.57
49178;BME280;35016;55.674;37.468;2022-07-15T10:29:40;98217.41;;;24.23;40.78
49178;BME280;35016;55.674;37.468;2022-07-15T10:32:08;98228.72;;;24.40;40.47
49178;BME280;35016;55.674;37.468;2022-07-15T10:34:44;98233.72;;;24.28;40.40
49178;BME280;35016;55.674;37.468;2022-07-15T10:37:21;98223.81;;;23.90;40.69
49178;BME280;35016;55.674;37.468;2022-07-15T10:39:51;98232.53;;;23.58;40.78
49178;BME280;35016;55.674;37.468;2022-07-15T10:42:20;98242.84;;;23.31;40.96
49178;BME280;35016;55.674;37.468;2022-07-15T10:47:29;98230.94;;;23.01;41.87
49178;BME280;35016;55.674;37.468;2022-07-15T10:49:59;98259.34;;;22.98;41.87
49178;BME280;35016;55.674;37.468;2022-07-15T10:52:30;98262.09;;;22.98;42.24
49178;BME280;35016;55.674;37.468;2022-07-15T10:57:53;98256.91;;;23.19;42.27
49178;BME280;35016;55.674;37.468;2022-07-15T11:03:08;98256.28;;;23.59;41.66
49178;BME280;35016;55.674;37.468;2022-07-15T11:13:49;98255.16;;;23.97;41.48
49178;BME280;35016;55.674;37.468;2022-07-15T11:16:20;98242.25;;;23.75;41.61
49178;BME280;35016;55.674;37.468;2022-07-15T11:18:52;98249.88;;;23.55;41.89
49178;BME280;35016;55.674;37.468;2022-07-15T11:21:20;98257.56;;;23.39;42.13
49178;BME280;35016;55.674;37.468;2022-07-15T11:23:49;98259.00;;;23.29;42.27
49178;BME280;35016;55.674;37.468;2022-07-15T11:26:18;98260.88;;;23.22;42.34
49178;BME280;35016;55.674;37.468;2022-07-15T11:28:55;98246.47;;;23.09;42.52
49178;BME280;35016;55.674;37.468;2022-07-15T11:31:27;98263.59;;;23.18;42.47
49178;BME280;35016;55.674;37.468;2022-07-15T11:33:55;98270.44;;;23.28;42.72
49178;BME280;35016;55.674;37.468;2022-07-15T11:36:22;98281.56;;;23.31;42.48
49178;BME280;35016;55.674;37.468;2022-07-15T11:38:51;98275.66;;;23.33;42.24
49178;BME280;35016;55.674;37.468;2022-07-15T11:41:20;98274.84;;;23.32;41.92
49178;BME280;35016;55.674;37.468;2022-07-15T11:44:08;98281.56;;;23.31;42.10
49178;BME280;35016;55.674;37.468;2022-07-15T11:46:55;98282.06;;;23.40;41.96
49178;BME280;35016;55.674;37.468;2022-07-15T11:49:33;98289.72;;;23.77;41.66
49178;BME280;35016;55.674;37.468;2022-07-15T11:52:03;98295.69;;;24.13;41.16
49178;BME280;35016;55.674;37.468;2022-07-15T11:54:31;98279.59;;;24.25;41.02
49178;BME280;35016;55.674;37.468;2022-07-15T11:57:00;98276.53;;;24.30;40.74
49178;BME280;35016;55.674;37.468;2022-07-15T11:59:29;98271.91;;;24.45;40.53
49178;BME280;35016;55.674;37.468;2022-07-15T12:02:07;98282.41;;;24.66;40.35
49178;BME280;35016;55.674;37.468;2022-07-15T12:04:36;98274.69;;;24.89;39.91
49178;BME280;35016;55.674;37.468;2022-07-15T12:07:04;98265.50;;;25.37;39.74
49178;BME280;35016;55.674;37.468;2022-07-15T12:09:41;98270.25;;;26.30;38.59
49178;BME280;35016;55.674;37.468;2022-07-15T12:12:09;98254.47;;;27.20;38.07
49178;BME280;35016;55.674;37.468;2022-07-15T12:14:36;98275.13;;;27.26;37.17
49178;BME280;35016;55.674;37.468;2022-07-15T12:17:04;98285.06;;;26.95;36.94
49178;BME280;35016;55.674;37.468;2022-07-15T12:19:33;98272.72;;;26.57;36.58
49178;BME280;35016;55.674;37.468;2022-07-15T12:22:06;98288.53;;;26.28;35.96
49178;BME280;35016;55.674;37.468;2022-07-15T12:24:47;98303.59;;;26.19;36.34
49178;BME280;35016;55.674;37.468;2022-07-15T12:27:19;98300.44;;;26.24;36.59
49178;BME280;35016;55.674;37.468;2022-07-15T12:30:05;98291.81;;;26.69;35.51
49178;BME280;35016;55.674;37.468;2022-07-15T12:32:35;98285.41;;;27.54;35.52
49178;BME280;35016;55.674;37.468;2022-07-15T12:35:07;98299.28;;;27.82;34.73
49178;BME280;35016;55.674;37.468;2022-07-15T12:40:12;98292.16;;;27.53;33.96
49178;BME280;35016;55.674;37.468;2022-07-15T12:42:46;98301.38;;;26.96;34.38
49178;BME280;35016;55.674;37.468;2022-07-15T12:50:33;98302.69;;;28.18;34.00
49178;BME280;35016;55.674;37.468;2022-07-15T12:53:01;98309.44;;;28.94;32.86
49178;BME280;35016;55.674;37.468;2022-07-15T12:55:41;98303.19;;;29.65;31.04
49178;BME280;35016;55.674;37.468;2022-07-15T12:58:14;98297.94;;;30.05;30.81
49178;BME280;35016;55.674;37.468;2022-07-15T13:00:43;98304.63;;;30.14;30.99
49178;BME280;35016;55.674;37.468;2022-07-15T13:05:51;98314.78;;;29.19;30.86
49178;BME280;35016;55.674;37.468;2022-07-15T13:08:23;98312.59;;;29.44;30.36
49178;BME280;35016;55.674;37.468;2022-07-15T13:10:54;98299.28;;;29.93;30.46
49178;BME280;35016;55.674;37.468;2022-07-15T13:13:23;98323.34;;;30.48;29.91
49178;BME280;35016;55.674;37.468;2022-07-15T13:15:51;98316.31;;;30.67;29.44
49178;BME280;35016;55.674;37.468;2022-07-15T13:18:19;98317.50;;;30.93;29.19
49178;BME280;35016;55.674;37.468;2022-07-15T13:20:48;98301.44;;;30.97;29.08
49178;BME280;35016;55.674;37.468;2022-07-15T13:23:15;98307.13;;;31.17;28.62
49178;BME280;35016;55.674;37.468;2022-07-15T13:25:42;98295.03;;;31.43;28.69
49178;BME280;35016;55.674;37.468;2022-07-15T13:28:10;98306.91;;;31.74;28.55
49178;BME280;35016;55.674;37.468;2022-07-15T13:30:37;98300.88;;;32.15;27.95
49178;BME280;35016;55.674;37.468;2022-07-15T13:33:05;98294.78;;;32.73;27.15
49178;BME280;35016;55.674;37.468;2022-07-15T13:35:33;98287.06;;;33.25;26.98
49178;BME280;35016;55.674;37.468;2022-07-15T13:38:00;98295.50;;;33.71;26.46
49178;BME280;35016;55.674;37.468;2022-07-15T13:40:27;98289.97;;;33.67;26.15
49178;BME280;35016;55.674;37.468;2022-07-15T13:42:54;98288.69;;;33.55;25.92
49178;BME280;35016;55.674;37.468;2022-07-15T13:45:21;98293.88;;;33.57;25.73
49178;BME280;35016;55.674;37.468;2022-07-15T13:47:50;98298.75;;;33.40;25.49
49178;BME280;35016;55.674;37.468;2022-07-15T13:56:46;98294.09;;;33.17;25.43
49178;BME280;35016;55.674;37.468;2022-07-15T13:59:27;98290.94;;;33.32;25.09
49178;BME280;35016;55.674;37.468;2022-07-15T14:02:18;98287.00;;;32.80;25.03
49178;BME280;35016;55.674;37.468;2022-07-15T14:04:56;98304.13;;;32.66;25.37
49178;BME280;35016;55.674;37.468;2022-07-15T14:07:28;98271.41;;;32.23;24.82
49178;BME280;35016;55.674;37.468;2022-07-15T14:11:07;98292.09;;;31.30;24.90
49178;BME280;35016;55.674;37.468;2022-07-15T14:13:51;98286.13;;;30.51;25.87
49178;BME280;35016;55.674;37.468;2022-07-15T14:16:19;98277.13;;;29.75;26.35
49178;BME280;35016;55.674;37.468;2022-07-15T14:18:50;98272.81;;;29.29;26.87
49178;BME280;35016;55.674;37.468;2022-07-15T14:21:18;98282.34;;;28.87;26.76
49178;BME280;35016;55.674;37.468;2022-07-15T14:23:45;98286.63;;;28.47;27.31
49178;BME280;35016;55.674;37.468;2022-07-15T14:26:13;98278.84;;;28.10;27.37
49178;BME280;35016;55.674;37.468;2022-07-15T14:28:41;98286.97;;;27.76;27.92
49178;BME280;35016;55.674;37.468;2022-07-15T14:31:11;98296.94;;;27.52;28.48
49178;BME280;35016;55.674;37.468;2022-07-15T14:33:40;98292.22;;;27.28;28.43
49178;BME280;35016;55.674;37.468;2022-07-15T14:36:09;98313.94;;;27.93;28.52
49178;BME280;35016;55.674;37.468;2022-07-15T14:38:38;98302.06;;;28.62;28.14
49178;BME280;35016;55.674;37.468;2022-07-15T14:41:06;98308.00;;;28.68;27.95
49178;BME280;35016;55.674;37.468;2022-07-15T14:43:33;98294.00;;;28.75;28.23